createdAt,value
2023-02-12T00:00:52.684Z,101556.66
2023-02-12T00:01:28.557Z,101542.09
2023-02-12T00:02:15.678Z,101554.28
2023-02-12T00:03:09.626Z,101539.69
2023-02-12T00:04:03.665Z,101556.69
2023-02-12T00:04:57.615Z,101546.03
2023-02-12T00:05:53.925Z,101548.56
2023-02-12T00:06:48.599Z,101551.41
2023-02-12T00:07:45.612Z,101556.56
2023-02-12T00:08:39.632Z,101563.25
2023-02-12T00:09:33.589Z,101565.38
2023-02-12T00:10:27.567Z,101571.00
2023-02-12T00:11:17.605Z,101577.66
2023-02-12T00:11:51.683Z,101543.44
2023-02-12T00:12:38.572Z,101571.81
2023-02-12T00:13:12.665Z,101569.44
2023-02-12T00:14:00.600Z,101562.34
2023-02-12T00:14:34.806Z,101559.00
2023-02-12T00:15:21.559Z,101574.50
2023-02-12T00:15:56.082Z,101560.09
2023-02-12T00:16:36.586Z,101553.78
2023-02-12T00:17:16.698Z,101556.56
2023-02-12T00:17:57.556Z,101573.09
2023-02-12T00:18:37.637Z,101543.34
2023-02-12T00:19:17.556Z,101576.00
2023-02-12T00:19:57.647Z,101585.16
2023-02-12T00:20:37.603Z,101571.66
2023-02-12T00:21:17.708Z,101574.81
2023-02-12T00:21:58.580Z,101585.56
2023-02-12T00:22:38.666Z,101577.84
2023-02-12T00:23:18.629Z,101578.38
2023-02-12T00:23:58.719Z,101558.22
2023-02-12T00:24:39.550Z,101580.34
2023-02-12T00:25:19.655Z,101573.41
2023-02-12T00:26:00.567Z,101586.84
2023-02-12T00:26:42.647Z,101589.44
2023-02-12T00:27:22.582Z,101574.50
2023-02-12T00:28:02.697Z,101579.41
2023-02-12T00:28:43.604Z,101579.34
2023-02-12T00:29:24.954Z,101584.22
2023-02-12T00:30:04.571Z,101582.47
2023-02-12T00:30:44.765Z,101580.84
2023-02-12T00:31:31.622Z,101584.16
2023-02-12T00:32:11.805Z,101580.34
2023-02-12T00:32:52.587Z,101583.75
2023-02-12T00:33:32.845Z,101588.72
2023-02-12T00:34:17.571Z,101599.28
2023-02-12T00:34:57.623Z,101596.22
2023-02-12T00:35:38.570Z,101586.19
2023-02-12T00:36:36.574Z,101584.38
2023-02-12T00:37:30.546Z,101600.00
2023-02-12T00:38:17.627Z,101593.66
2023-02-12T00:38:52.667Z,101599.41
2023-02-12T00:39:39.612Z,101609.16
2023-02-12T00:40:14.591Z,101602.53
2023-02-12T00:41:01.558Z,101601.16
2023-02-12T00:41:35.597Z,101609.44
2023-02-12T00:42:22.593Z,101615.97
2023-02-12T00:42:56.598Z,101610.16
2023-02-12T00:43:37.568Z,101588.91
2023-02-12T00:44:17.573Z,101603.06
2023-02-12T00:44:58.565Z,101613.81
2023-02-12T00:45:39.644Z,101603.19
2023-02-12T00:46:20.623Z,101608.50
2023-02-12T00:47:03.655Z,101612.47
2023-02-12T00:47:43.549Z,101613.75
2023-02-12T00:48:23.595Z,101606.66
2023-02-12T00:49:03.578Z,101602.22
2023-02-12T00:49:44.614Z,101612.03
2023-02-12T00:50:25.560Z,101608.38
2023-02-12T00:51:05.601Z,101616.31
2023-02-12T00:51:45.547Z,101619.28
2023-02-12T00:52:28.223Z,101630.91
2023-02-12T00:53:08.537Z,101619.28
2023-02-12T00:53:49.653Z,101621.47
2023-02-12T00:54:30.584Z,101627.72
2023-02-12T00:55:11.729Z,101617.75
2023-02-12T00:55:52.761Z,101622.50
2023-02-12T00:56:33.563Z,101615.88
2023-02-12T00:57:13.775Z,101620.81
2023-02-12T00:57:54.624Z,101621.28
2023-02-12T00:58:35.532Z,101623.19
2023-02-12T00:59:15.594Z,101616.22
2023-02-12T00:59:56.609Z,101625.38
2023-02-12T01:00:36.639Z,101613.06
2023-02-12T01:01:16.601Z,101622.72
2023-02-12T01:01:58.674Z,101624.63
2023-02-12T01:02:38.516Z,101614.81
2023-02-12T01:03:18.817Z,101617.34
2023-02-12T01:03:58.519Z,101642.16
2023-02-12T01:04:38.637Z,101615.78
2023-02-12T01:05:19.680Z,101617.34
2023-02-12T01:06:00.605Z,101633.31
2023-02-12T01:06:40.585Z,101620.03
2023-02-12T01:07:20.635Z,101628.34
2023-02-12T01:08:01.526Z,101626.53
2023-02-12T01:08:41.618Z,101642.34
2023-02-12T01:09:22.523Z,101643.28
2023-02-12T01:10:02.570Z,101649.59
2023-02-12T01:10:42.526Z,101644.50
2023-02-12T01:11:22.890Z,101655.63
2023-02-12T01:12:02.646Z,101633.44
2023-02-12T01:12:42.599Z,101638.53
2023-02-12T01:13:22.507Z,101635.72
2023-02-12T01:14:03.600Z,101633.66
2023-02-12T01:14:43.794Z,101636.03
2023-02-12T01:15:25.606Z,101645.59
2023-02-12T01:16:24.671Z,101647.19
2023-02-12T01:17:04.596Z,101665.84
2023-02-12T01:17:45.556Z,101660.69
2023-02-12T01:18:26.613Z,101672.19
2023-02-12T01:19:07.559Z,101643.88
2023-02-12T01:19:47.601Z,101652.94
2023-02-12T01:20:31.526Z,101662.47
2023-02-12T01:21:21.611Z,101655.25
2023-02-12T01:22:01.534Z,101655.50
2023-02-12T01:22:43.565Z,101659.59
2023-02-12T01:23:24.508Z,101647.25
2023-02-12T01:24:05.563Z,101660.16
2023-02-12T01:24:45.528Z,101651.53
2023-02-12T01:25:26.564Z,101650.91
2023-02-12T01:26:06.522Z,101650.56
2023-02-12T01:26:46.587Z,101646.56
2023-02-12T01:27:26.532Z,101655.72
2023-02-12T01:28:06.764Z,101661.50
2023-02-12T01:28:49.524Z,101662.59
2023-02-12T01:29:29.570Z,101662.28
2023-02-12T01:30:11.547Z,101666.25
2023-02-12T01:30:52.657Z,101671.09
2023-02-12T01:31:36.585Z,101659.50
2023-02-12T01:32:17.889Z,101652.47
2023-02-12T01:32:58.549Z,101661.88
2023-02-12T01:33:38.581Z,101662.16
2023-02-12T01:34:19.510Z,101667.22
2023-02-12T01:34:59.567Z,101672.72
2023-02-12T01:35:39.511Z,101651.22
2023-02-12T01:36:20.582Z,101669.50
2023-02-12T01:37:00.499Z,101658.81
2023-02-12T01:37:43.764Z,101670.28
2023-02-12T01:38:26.578Z,101669.25
2023-02-12T01:39:07.691Z,101665.94
2023-02-12T01:39:47.538Z,101656.13
2023-02-12T01:40:27.582Z,101649.63
2023-02-12T01:41:22.487Z,101657.88
2023-02-12T01:42:02.572Z,101674.47
2023-02-12T01:42:43.492Z,101672.09
2023-02-12T01:43:23.559Z,101653.50
2023-02-12T01:44:29.605Z,101684.13
2023-02-12T01:45:21.597Z,101669.03
2023-02-12T01:46:01.513Z,101654.06
2023-02-12T01:46:41.723Z,101664.34
2023-02-12T01:47:24.480Z,101667.03
2023-02-12T01:48:07.539Z,101658.97
2023-02-12T01:48:53.504Z,101653.25
2023-02-12T01:49:51.491Z,101664.56
2023-02-12T01:50:45.518Z,101650.56
2023-02-12T01:51:39.508Z,101657.63
2023-02-12T01:52:41.496Z,101670.75
2023-02-12T01:53:37.486Z,101664.50
2023-02-12T01:54:33.486Z,101659.78
2023-02-12T01:55:15.532Z,101657.09
2023-02-12T01:55:58.570Z,101675.34
2023-02-12T01:56:39.446Z,101674.09
2023-02-12T01:57:21.558Z,101653.69
2023-02-12T01:58:01.492Z,101663.38
2023-02-12T01:58:46.558Z,101673.91
2023-02-12T01:59:27.483Z,101672.81
2023-02-12T02:00:10.573Z,101657.31
2023-02-12T02:00:51.517Z,101653.69
2023-02-12T02:01:35.638Z,101678.44
2023-02-12T02:02:15.495Z,101677.16
2023-02-12T02:03:04.572Z,101682.06
2023-02-12T02:03:46.565Z,101663.56
2023-02-12T02:04:31.589Z,101673.28
2023-02-12T02:05:13.477Z,101663.88
2023-02-12T02:06:08.556Z,101660.69
2023-02-12T02:07:18.482Z,101689.03
2023-02-12T02:08:13.498Z,101686.97
2023-02-12T02:09:09.470Z,101688.13
2023-02-12T02:10:03.538Z,101676.50
2023-02-12T02:10:57.478Z,101682.84
2023-02-12T02:11:56.475Z,101690.34
2023-02-12T02:12:56.356Z,101653.88
2023-02-12T02:13:55.482Z,101696.19
2023-02-12T02:14:35.577Z,101686.91
2023-02-12T02:15:16.462Z,101680.09
2023-02-12T02:16:01.601Z,101693.31
2023-02-12T02:16:43.468Z,101686.56
2023-02-12T02:18:04.492Z,101695.78
2023-02-12T02:18:56.514Z,101673.72
2023-02-12T02:20:06.481Z,101703.72
2023-02-12T02:20:48.580Z,101701.97
2023-02-12T02:21:38.473Z,101694.63
2023-02-12T02:22:50.496Z,101707.84
2023-02-12T02:24:01.478Z,101698.47
2023-02-12T02:24:54.887Z,101707.66
2023-02-12T02:26:47.506Z,101707.75
2023-02-12T02:27:57.594Z,101681.72
2023-02-12T02:28:40.433Z,101716.06
2023-02-12T02:29:39.459Z,101705.94
2023-02-12T02:30:21.527Z,101713.47
2023-02-12T02:31:38.531Z,101710.38
2023-02-12T02:32:30.562Z,101708.41
2023-02-12T02:33:44.407Z,101711.78
2023-02-12T02:34:53.438Z,101695.16
2023-02-12T02:36:17.438Z,101690.41
2023-02-12T02:37:32.467Z,101714.34
2023-02-12T02:38:53.438Z,101713.38
2023-02-12T02:40:02.475Z,101719.72
2023-02-12T02:41:08.428Z,101724.69
2023-02-12T02:42:18.406Z,101713.56
2023-02-12T02:43:23.431Z,101699.63
2023-02-12T02:44:27.444Z,101723.63
2023-02-12T02:45:47.439Z,101698.84
2023-02-12T02:46:49.437Z,101697.91
2023-02-12T02:47:57.399Z,101734.38
2023-02-12T02:49:01.441Z,101715.84
2023-02-12T02:50:06.435Z,101719.66
2023-02-12T02:51:07.455Z,101725.25
2023-02-12T02:52:06.422Z,101727.63
2023-02-12T02:53:22.420Z,101722.66
2023-02-12T02:54:30.400Z,101726.22
2023-02-12T02:55:28.408Z,101736.59
2023-02-12T02:56:28.452Z,101736.66
2023-02-12T02:57:33.421Z,101737.94
2023-02-12T02:58:53.430Z,101735.56
2023-02-12T02:59:53.416Z,101728.13
2023-02-12T03:00:53.432Z,101725.13
2023-02-12T03:02:29.451Z,101743.00
2023-02-12T03:03:47.431Z,101737.31
2023-02-12T03:04:56.441Z,101734.53
2023-02-12T03:05:57.720Z,101730.34
2023-02-12T03:07:04.386Z,101740.31
2023-02-12T03:08:04.510Z,101723.06
2023-02-12T03:08:55.494Z,101751.94
2023-02-12T03:10:08.375Z,101755.25
2023-02-12T03:10:51.506Z,101740.72
2023-02-12T03:11:40.405Z,101743.41
2023-02-12T03:12:30.495Z,101751.72
2023-02-12T03:13:23.424Z,101758.31
2023-02-12T03:14:13.438Z,101760.97
2023-02-12T03:15:19.406Z,101750.38
2023-02-12T03:16:27.501Z,101758.22
2023-02-12T03:17:20.390Z,101759.97
2023-02-12T03:17:56.440Z,101764.47
2023-02-12T03:18:54.413Z,101767.94
2023-02-12T03:19:36.520Z,101761.47
2023-02-12T03:20:28.387Z,101774.63
2023-02-12T03:21:09.487Z,101763.22
2023-02-12T03:22:13.394Z,101783.66
2023-02-12T03:22:52.542Z,101764.34
2023-02-12T03:23:49.397Z,101783.66
2023-02-12T03:24:45.413Z,101771.47
2023-02-12T03:25:49.397Z,101774.84
2023-02-12T03:27:24.370Z,101790.13
2023-02-12T03:28:26.439Z,101747.53
2023-02-12T03:29:20.397Z,101770.47
2023-02-12T03:30:08.424Z,101793.44
2023-02-12T03:31:25.704Z,101794.88
2023-02-12T03:32:37.389Z,101790.22
2023-02-12T03:33:32.433Z,101796.69
2023-02-12T03:34:46.400Z,101790.47
2023-02-12T03:35:46.391Z,101804.00
2023-02-12T03:36:46.387Z,101796.13
2023-02-12T03:38:08.378Z,101803.69
2023-02-12T03:39:12.373Z,101790.22
2023-02-12T03:40:29.415Z,101811.88
2023-02-12T03:41:27.451Z,101803.56
2023-02-12T03:42:16.447Z,101816.44
2023-02-12T03:43:31.370Z,101797.13
2023-02-12T03:44:17.471Z,101822.13
2023-02-12T03:45:12.349Z,101815.19
2023-02-12T03:46:10.461Z,101822.28
2023-02-12T03:47:11.383Z,101827.81
2023-02-12T03:47:58.457Z,101820.69
2023-02-12T03:49:20.357Z,101802.25
2023-02-12T03:50:29.419Z,101824.44
2023-02-12T03:51:17.349Z,101828.97
2023-02-12T03:51:58.270Z,101809.16
2023-02-12T03:52:39.390Z,101834.66
2023-02-12T03:53:19.471Z,101822.13
2023-02-12T03:53:59.364Z,101823.72
2023-02-12T03:54:39.436Z,101834.03
2023-02-12T03:55:21.362Z,101837.03
2023-02-12T03:56:22.459Z,101836.72
2023-02-12T03:57:13.361Z,101842.66
2023-02-12T03:58:06.355Z,101827.50
2023-02-12T03:58:41.425Z,101853.09
2023-02-12T03:59:29.351Z,101849.16
2023-02-12T04:00:10.456Z,101853.53
2023-02-12T04:00:58.434Z,101854.63
2023-02-12T04:01:33.554Z,101845.81
2023-02-12T04:02:23.396Z,101853.53
2023-02-12T04:02:58.447Z,101858.09
2023-02-12T04:03:39.363Z,101859.69
2023-02-12T04:04:19.509Z,101851.75
2023-02-12T04:05:00.367Z,101842.75
2023-02-12T04:05:40.471Z,101852.25
2023-02-12T04:06:35.324Z,101860.03
2023-02-12T04:07:15.432Z,101862.53
2023-02-12T04:07:57.389Z,101861.03
2023-02-12T04:08:38.461Z,101852.97
2023-02-12T04:09:19.393Z,101848.06
2023-02-12T04:10:00.420Z,101856.28
2023-02-12T04:11:03.344Z,101875.19
2023-02-12T04:12:19.405Z,101875.75
2023-02-12T04:13:08.316Z,101856.00
2023-02-12T04:14:26.366Z,101889.44
2023-02-12T04:15:25.392Z,101885.16
2023-02-12T04:16:39.408Z,101891.25
2023-02-12T04:18:17.332Z,101893.25
2023-02-12T04:19:11.338Z,101866.03
2023-02-12T04:20:11.397Z,101894.97
2023-02-12T04:21:15.505Z,101893.38
2023-02-12T04:22:21.346Z,101883.69
2023-02-12T04:23:53.428Z,101887.69
2023-02-12T04:25:07.354Z,101877.09
2023-02-12T04:26:21.320Z,101897.97
2023-02-12T04:27:27.408Z,101897.63
2023-02-12T04:28:35.455Z,101894.56
2023-02-12T04:29:31.436Z,101896.25
2023-02-12T04:31:06.389Z,101893.38
2023-02-12T04:32:00.320Z,101893.75
2023-02-12T04:33:14.294Z,101893.25
2023-02-12T04:34:42.353Z,101894.28
2023-02-12T04:35:54.858Z,101891.66
2023-02-12T04:36:56.315Z,101902.28
2023-02-12T04:37:55.546Z,101898.06
2023-02-12T04:38:48.387Z,101907.50
2023-02-12T04:39:32.304Z,101902.28
2023-02-12T04:40:21.390Z,101884.53
2023-02-12T04:41:02.316Z,101903.25
2023-02-12T04:41:42.392Z,101898.81
2023-02-12T04:42:23.329Z,101902.13
2023-02-12T04:43:10.380Z,101906.22
2023-02-12T04:44:04.312Z,101900.75
2023-02-12T04:44:58.404Z,101906.34
2023-02-12T04:45:52.328Z,101903.13
2023-02-12T04:46:46.332Z,101897.78
2023-02-12T04:47:40.339Z,101893.72
2023-02-12T04:48:28.338Z,101914.00
2023-02-12T04:49:06.402Z,101913.63
2023-02-12T04:49:53.294Z,101908.38
2023-02-12T04:50:27.398Z,101918.56
2023-02-12T04:51:14.298Z,101908.44
2023-02-12T04:51:48.348Z,101915.06
2023-02-12T04:52:35.313Z,101915.78
2023-02-12T04:53:09.403Z,101915.50
2023-02-12T04:53:49.325Z,101899.09
2023-02-12T04:54:30.390Z,101913.91
2023-02-12T04:55:11.308Z,101906.63
2023-02-12T04:55:51.459Z,101901.84
2023-02-12T04:56:31.301Z,101910.72
2023-02-12T04:57:11.324Z,101924.50
2023-02-12T04:57:51.310Z,101912.19
2023-02-12T04:58:31.407Z,101921.63
2023-02-12T04:59:12.322Z,101915.78
2023-02-12T04:59:52.376Z,101912.19
2023-02-12T05:00:32.335Z,101894.72
2023-02-12T05:01:13.692Z,101920.47
2023-02-12T05:01:54.533Z,101916.81
2023-02-12T05:02:34.386Z,101915.81
2023-02-12T05:03:15.311Z,101924.97
2023-02-12T05:03:55.341Z,101909.13
2023-02-12T05:04:35.293Z,101910.28
2023-02-12T05:05:15.370Z,101924.22
2023-02-12T05:05:55.540Z,101916.81
2023-02-12T05:06:37.385Z,101927.38
2023-02-12T05:07:19.284Z,101911.31
2023-02-12T05:07:59.385Z,101915.56
2023-02-12T05:08:40.285Z,101924.47
2023-02-12T05:09:24.444Z,101920.03
2023-02-12T05:10:05.317Z,101913.91
2023-02-12T05:10:45.327Z,101921.91
2023-02-12T05:11:26.267Z,101935.00
2023-02-12T05:12:06.309Z,101923.38
2023-02-12T05:12:46.306Z,101913.78
2023-02-12T05:13:26.338Z,101925.69
2023-02-12T05:14:07.272Z,101925.25
2023-02-12T05:14:47.334Z,101934.72
2023-02-12T05:15:29.378Z,101935.81
2023-02-12T05:16:14.371Z,101936.00
2023-02-12T05:16:54.274Z,101921.63
2023-02-12T05:17:34.320Z,101930.50
2023-02-12T05:18:14.256Z,101932.81
2023-02-12T05:18:54.410Z,101936.53
2023-02-12T05:19:35.282Z,101933.03
2023-02-12T05:20:16.375Z,101943.00
2023-02-12T05:21:07.283Z,101945.03
2023-02-12T05:21:47.346Z,101952.34
2023-02-12T05:22:28.287Z,101947.63
2023-02-12T05:23:08.320Z,101923.94
2023-02-12T05:23:49.244Z,101936.00
2023-02-12T05:24:29.331Z,101946.47
2023-02-12T05:25:10.268Z,101948.38
2023-02-12T05:25:50.320Z,101944.91
2023-02-12T05:26:30.305Z,101940.31
2023-02-12T05:27:10.364Z,101945.69
2023-02-12T05:27:51.268Z,101936.47
2023-02-12T05:28:32.410Z,101956.94
2023-02-12T05:29:12.259Z,101947.22
2023-02-12T05:29:52.346Z,101940.88
2023-02-12T05:30:32.284Z,101964.81
2023-02-12T05:31:15.720Z,101950.81
2023-02-12T05:31:56.429Z,101955.00
2023-02-12T05:32:36.526Z,101956.66
2023-02-12T05:33:16.242Z,101958.59
2023-02-12T05:33:56.438Z,101969.91
2023-02-12T05:34:36.246Z,101950.50
2023-02-12T05:35:20.335Z,101971.50
2023-02-12T05:36:02.272Z,101954.50
2023-02-12T05:36:42.381Z,101963.50
2023-02-12T05:37:23.274Z,101970.34
2023-02-12T05:38:03.322Z,101959.81
2023-02-12T05:38:44.260Z,101966.34
2023-02-12T05:39:25.300Z,101972.47
2023-02-12T05:40:06.274Z,101965.84
2023-02-12T05:40:46.309Z,101958.69
2023-02-12T05:41:29.247Z,101957.09
2023-02-12T05:42:09.304Z,101976.31
2023-02-12T05:42:49.281Z,101974.69
2023-02-12T05:43:29.310Z,101963.50
2023-02-12T05:44:12.264Z,101978.34
2023-02-12T05:44:52.298Z,101979.50
2023-02-12T05:45:36.246Z,101982.69
2023-02-12T05:46:17.389Z,101982.97
2023-02-12T05:46:57.240Z,101979.69
2023-02-12T05:47:37.389Z,101985.75
2023-02-12T05:48:18.314Z,101971.16
2023-02-12T05:49:12.245Z,101983.81
2023-02-12T05:50:06.246Z,101975.66
2023-02-12T05:51:00.241Z,101996.44
2023-02-12T05:51:54.247Z,101996.59
2023-02-12T05:52:48.257Z,101954.13
2023-02-12T05:53:35.283Z,101970.31
2023-02-12T05:54:12.305Z,101997.16
2023-02-12T05:54:59.293Z,102000.72
2023-02-12T05:55:33.337Z,101995.19
2023-02-12T05:56:27.242Z,101997.97
2023-02-12T05:57:01.323Z,101984.72
2023-02-12T05:57:48.227Z,101981.22
2023-02-12T05:58:22.334Z,101996.34
2023-02-12T05:59:06.274Z,101999.25
2023-02-12T05:59:46.335Z,101983.66
2023-02-12T06:00:27.239Z,101996.81
2023-02-12T06:01:07.307Z,102009.00
2023-02-12T06:01:50.262Z,101994.28
2023-02-12T06:02:30.307Z,102001.00
2023-02-12T06:03:10.218Z,102004.22
2023-02-12T06:03:51.297Z,102002.59
2023-02-12T06:04:35.246Z,102010.53
2023-02-12T06:05:15.307Z,102005.28
2023-02-12T06:05:59.221Z,102015.63
2023-02-12T06:06:42.205Z,102012.94
2023-02-12T06:07:22.223Z,102010.34
2023-02-12T06:08:02.333Z,102015.09
2023-02-12T06:08:43.260Z,102006.38
2023-02-12T06:09:24.302Z,101998.06
2023-02-12T06:10:06.256Z,102013.63
2023-02-12T06:10:46.244Z,102015.38
2023-02-12T06:11:27.279Z,102027.47
2023-02-12T06:12:08.355Z,102013.22
2023-02-12T06:12:48.236Z,102003.69
2023-02-12T06:13:28.300Z,102004.34
2023-02-12T06:14:11.204Z,102028.88
2023-02-12T06:14:51.274Z,102020.22
2023-02-12T06:15:31.229Z,102025.44
2023-02-12T06:16:12.276Z,102015.75
2023-02-12T06:16:54.195Z,102035.06
2023-02-12T06:17:48.240Z,102030.53
2023-02-12T06:18:43.215Z,102036.94
2023-02-12T06:19:37.242Z,102021.09
2023-02-12T06:20:31.236Z,102031.84
2023-02-12T06:21:25.225Z,102032.47
2023-02-12T06:22:19.200Z,102044.91
2023-02-12T06:23:13.229Z,102038.97
2023-02-12T06:24:08.231Z,102053.69
2023-02-12T06:25:02.224Z,102049.41
2023-02-12T06:25:49.214Z,102049.41
2023-02-12T06:26:24.283Z,102049.41
2023-02-12T06:27:11.206Z,102055.41
2023-02-12T06:27:45.268Z,102047.66
2023-02-12T06:28:32.235Z,102049.72
2023-02-12T06:29:06.282Z,102063.19
2023-02-12T06:29:53.238Z,102065.72
2023-02-12T06:30:27.274Z,102051.75
2023-02-12T06:31:26.413Z,102070.09
2023-02-12T06:32:00.313Z,102052.50
2023-02-12T06:32:47.176Z,102058.75
2023-02-12T06:33:21.268Z,102076.47
2023-02-12T06:34:12.200Z,102063.09
2023-02-12T06:34:47.253Z,102059.63
2023-02-12T06:35:35.194Z,102056.06
2023-02-12T06:36:11.252Z,102070.38
2023-02-12T06:36:53.205Z,102062.44
2023-02-12T06:37:36.888Z,102054.53
2023-02-12T06:38:18.216Z,102073.00
2023-02-12T06:39:00.253Z,102064.06
2023-02-12T06:39:40.211Z,102075.31
2023-02-12T06:40:20.347Z,102077.06
2023-02-12T06:41:00.187Z,102086.75
2023-02-12T06:41:40.314Z,102075.47
2023-02-12T06:42:20.215Z,102059.75
2023-02-12T06:43:01.269Z,102088.84
2023-02-12T06:43:41.208Z,102097.53
2023-02-12T06:44:21.254Z,102081.16
2023-02-12T06:45:01.208Z,102087.41
2023-02-12T06:45:41.265Z,102086.53
2023-02-12T06:46:21.216Z,102082.41
2023-02-12T06:47:02.265Z,102082.13
2023-02-12T06:47:42.212Z,102088.38
2023-02-12T06:48:22.280Z,102095.13
2023-02-12T06:49:05.178Z,102093.50
2023-02-12T06:49:45.228Z,102086.53
2023-02-12T06:50:26.191Z,102099.69
2023-02-12T06:51:24.321Z,102090.16
2023-02-12T06:52:04.180Z,102096.34
2023-02-12T06:52:51.239Z,102091.91
2023-02-12T06:53:47.190Z,102096.88
2023-02-12T06:54:41.178Z,102105.63
2023-02-12T06:55:35.183Z,102092.19
2023-02-12T06:56:29.212Z,102105.16
2023-02-12T06:57:23.202Z,102108.75
2023-02-12T06:58:10.228Z,102102.72
2023-02-12T06:58:48.250Z,102107.38
2023-02-12T06:59:35.167Z,102109.00
2023-02-12T07:00:09.249Z,102113.44
2023-02-12T07:00:56.212Z,102116.25
2023-02-12T07:01:34.233Z,102116.31
2023-02-12T07:02:21.153Z,102104.00
2023-02-12T07:03:01.304Z,102113.69
2023-02-12T07:03:42.277Z,102081.56
2023-02-12T07:04:22.257Z,102110.06
2023-02-12T07:05:02.226Z,102117.06
2023-02-12T07:05:42.915Z,102095.94
2023-02-12T07:06:24.170Z,102096.34
2023-02-12T07:07:04.268Z,102112.00
2023-02-12T07:07:45.162Z,102117.31
2023-02-12T07:08:25.195Z,102109.78
2023-02-12T07:09:05.168Z,102090.94
2023-02-12T07:09:45.251Z,102106.78
2023-02-12T07:10:26.189Z,102109.22
2023-02-12T07:11:06.345Z,102118.25
2023-02-12T07:11:47.172Z,102124.47
2023-02-12T07:12:27.232Z,102120.94
2023-02-12T07:13:07.173Z,102108.72
2023-02-12T07:13:49.205Z,102108.97
2023-02-12T07:14:29.199Z,102114.38
2023-02-12T07:15:12.265Z,102091.94
2023-02-12T07:15:53.295Z,102118.00
2023-02-12T07:17:00.562Z,102125.22
2023-02-12T07:17:54.147Z,102122.31
2023-02-12T07:18:49.172Z,102113.34
2023-02-12T07:19:44.209Z,102125.78
2023-02-12T07:20:38.164Z,102126.75
2023-02-12T07:21:32.247Z,102121.38
2023-02-12T07:22:29.141Z,102117.91
2023-02-12T07:23:27.158Z,102125.59
2023-02-12T07:24:21.155Z,102129.84
2023-02-12T07:25:08.183Z,102139.91
2023-02-12T07:25:42.228Z,102122.22
2023-02-12T07:26:30.124Z,102135.50
2023-02-12T07:27:04.210Z,102121.47
2023-02-12T07:27:51.153Z,102132.91
2023-02-12T07:28:25.275Z,102139.34
2023-02-12T07:29:12.148Z,102133.00
2023-02-12T07:29:46.243Z,102118.00
2023-02-12T07:30:33.251Z,102136.47
2023-02-12T07:31:16.408Z,102122.22
2023-02-12T07:32:03.236Z,102137.16
2023-02-12T07:32:40.199Z,102126.47
2023-02-12T07:33:29.136Z,102133.44
2023-02-12T07:34:06.247Z,102142.66
2023-02-12T07:34:54.128Z,102135.19
2023-02-12T07:35:28.205Z,102135.91
2023-02-12T07:36:10.208Z,102136.78
2023-02-12T07:36:51.224Z,102137.31
2023-02-12T07:37:32.353Z,102128.03
2023-02-12T07:38:12.210Z,102147.16
2023-02-12T07:38:53.138Z,102137.88
2023-02-12T07:39:33.212Z,102138.16
2023-02-12T07:40:15.138Z,102124.03
2023-02-12T07:40:57.306Z,102127.28
2023-02-12T07:41:41.143Z,102115.78
2023-02-12T07:42:21.341Z,102132.69
2023-02-12T07:43:03.320Z,102136.81
2023-02-12T07:43:43.655Z,102136.47
2023-02-12T07:44:25.146Z,102131.84
2023-02-12T07:45:05.230Z,102128.06
2023-02-12T07:45:45.178Z,102136.09
2023-02-12T07:46:35.600Z,102129.09
2023-02-12T07:47:15.150Z,102133.44
2023-02-12T07:47:55.518Z,102138.69
2023-02-12T07:48:35.134Z,102135.06
2023-02-12T07:49:22.216Z,102131.44
2023-02-12T07:50:02.153Z,102130.50
2023-02-12T07:50:42.206Z,102111.91
2023-02-12T07:51:27.155Z,102122.28
2023-02-12T07:52:07.672Z,102117.19
2023-02-12T07:52:49.157Z,102139.44
2023-02-12T07:53:29.162Z,102131.44
2023-02-12T07:54:10.193Z,102127.94
2023-02-12T07:54:50.176Z,102135.22
2023-02-12T07:55:30.149Z,102137.06
2023-02-12T07:56:32.744Z,102134.78
2023-02-12T07:57:14.131Z,102120.66
2023-02-12T07:58:01.200Z,102119.06
2023-02-12T07:58:58.159Z,102134.94
2023-02-12T07:59:52.124Z,102134.00
2023-02-12T08:00:46.121Z,102126.47
2023-02-12T08:01:47.161Z,102139.44
2023-02-12T08:02:41.249Z,102136.97
2023-02-12T08:03:21.145Z,102127.94
2023-02-12T08:04:09.062Z,102131.69
2023-02-12T08:04:51.113Z,102132.44
2023-02-12T08:05:31.236Z,102141.13
2023-02-12T08:06:23.151Z,102138.34
2023-02-12T08:07:04.209Z,102128.47
2023-02-12T08:07:44.102Z,102131.91
2023-02-12T08:08:31.218Z,102139.78
2023-02-12T08:09:30.108Z,102143.16
2023-02-12T08:10:32.249Z,102123.63
2023-02-12T08:11:28.094Z,102135.00
2023-02-12T08:12:22.121Z,102121.28
2023-02-12T08:13:16.296Z,102126.81
2023-02-12T08:13:58.173Z,102141.91
2023-02-12T08:14:38.223Z,102136.41
2023-02-12T08:15:19.134Z,102132.06
2023-02-12T08:16:10.252Z,102143.41
2023-02-12T08:16:52.226Z,102129.28
2023-02-12T08:17:32.235Z,102127.66
2023-02-12T08:18:12.125Z,102142.06
2023-02-12T08:18:53.185Z,102148.91
2023-02-12T08:19:36.366Z,102138.97
2023-02-12T08:20:16.169Z,102153.81
2023-02-12T08:20:56.139Z,102144.03
2023-02-12T08:21:37.167Z,102148.09
2023-02-12T08:22:17.116Z,102144.34
2023-02-12T08:22:58.186Z,102147.56
2023-02-12T08:23:40.107Z,102146.66
2023-02-12T08:24:21.965Z,102134.94
2023-02-12T08:25:05.199Z,102134.94
2023-02-12T08:25:53.987Z,102147.97
2023-02-12T08:26:41.092Z,102148.91
2023-02-12T08:27:24.295Z,102137.88
2023-02-12T08:28:04.159Z,102146.63
2023-02-12T08:28:47.187Z,102153.75
2023-02-12T08:29:32.168Z,102152.75
2023-02-12T08:30:20.134Z,102146.78
2023-02-12T08:31:18.227Z,102149.19
2023-02-12T08:32:17.208Z,102147.38
2023-02-12T08:33:11.131Z,102153.59
2023-02-12T08:34:07.068Z,102152.41
2023-02-12T08:35:01.186Z,102151.13
2023-02-12T08:35:46.236Z,102151.88
2023-02-12T08:36:34.207Z,102150.47
2023-02-12T08:37:20.281Z,102130.56
2023-02-12T08:38:05.627Z,102135.88
2023-02-12T08:38:47.129Z,102162.78
2023-02-12T08:39:28.214Z,102165.59
2023-02-12T08:40:09.040Z,102165.50
2023-02-12T08:40:56.137Z,102170.69
2023-02-12T08:41:51.083Z,102174.03
2023-02-12T08:42:47.135Z,102162.09
2023-02-12T08:43:42.441Z,102164.25
2023-02-12T08:44:36.095Z,102148.53
2023-02-12T08:45:30.072Z,102160.56
2023-02-12T08:46:24.133Z,102162.22
2023-02-12T08:47:00.178Z,102152.59
2023-02-12T08:47:47.087Z,102157.00
2023-02-12T08:48:21.119Z,102156.25
2023-02-12T08:49:19.083Z,102158.00
2023-02-12T08:49:53.208Z,102149.50
2023-02-12T08:50:43.057Z,102158.72
2023-02-12T08:51:23.160Z,102155.50
2023-02-12T08:52:06.105Z,102167.31
2023-02-12T08:52:47.131Z,102169.97
2023-02-12T08:53:27.158Z,102172.66
2023-02-12T08:54:10.204Z,102162.81
2023-02-12T08:54:50.087Z,102172.03
2023-02-12T08:55:44.096Z,102154.41
2023-02-12T08:56:43.082Z,102166.59
2023-02-12T08:57:30.081Z,102174.72
2023-02-12T08:58:04.134Z,102161.06
2023-02-12T08:58:52.070Z,102172.31